sensor_id;sensor_type;location;lat;lon;timestamp;P1;durP1;ratioP1;P2;durP2;ratioP2
50309;SDS011;36207;51.850;21.698;2024-01-27T00:01:22;28.10;;;15.70;;
50309;SDS011;36207;51.850;21.698;2024-01-27T00:03:48;32.90;;;17.00;;
50309;SDS011;36207;51.850;21.698;2024-01-27T00:06:15;44.70;;;19.20;;
50309;SDS011;36207;51.850;21.698;2024-01-27T00:08:41;35.60;;;17.80;;
50309;SDS011;36207;51.850;21.698;2024-01-27T00:11:08;37.40;;;18.50;;
50309;SDS011;36207;51.850;21.698;2024-01-27T00:13:37;32.70;;;18.00;;
50309;SDS011;36207;51.850;21.698;2024-01-27T00:16:03;32.40;;;17.60;;
50309;SDS011;36207;51.850;21.698;2024-01-27T00:18:29;34.00;;;17.50;;
50309;SDS011;36207;51.850;21.698;2024-01-27T00:20:55;34.30;;;17.90;;
50309;SDS011;36207;51.850;21.698;2024-01-27T00:23:21;35.30;;;18.90;;
50309;SDS011;36207;51.850;21.698;2024-01-27T00:25:47;34.00;;;17.90;;
50309;SDS011;36207;51.850;21.698;2024-01-27T00:28:13;34.20;;;17.90;;
50309;SDS011;36207;51.850;21.698;2024-01-27T00:30:39;35.10;;;18.20;;
50309;SDS011;36207;51.850;21.698;2024-01-27T00:33:04;33.70;;;17.70;;
50309;SDS011;36207;51.850;21.698;2024-01-27T00:35:30;35.80;;;18.20;;
50309;SDS011;36207;51.850;21.698;2024-01-27T00:37:56;34.30;;;18.00;;
50309;SDS011;36207;51.850;21.698;2024-01-27T00:40:22;30.80;;;15.70;;
50309;SDS011;36207;51.850;21.698;2024-01-27T00:42:48;30.60;;;17.00;;
50309;SDS011;36207;51.850;21.698;2024-01-27T00:45:14;35.30;;;17.20;;
50309;SDS011;36207;51.850;21.698;2024-01-27T00:47:40;29.60;;;16.80;;
50309;SDS011;36207;51.850;21.698;2024-01-27T00:50:05;31.90;;;15.80;;
50309;SDS011;36207;51.850;21.698;2024-01-27T00:52:34;30.50;;;15.50;;
50309;SDS011;36207;51.850;21.698;2024-01-27T00:55:00;29.10;;;15.20;;
50309;SDS011;36207;51.850;21.698;2024-01-27T00:57:27;27.80;;;14.80;;
50309;SDS011;36207;51.850;21.698;2024-01-27T00:59:53;27.50;;;13.80;;
50309;SDS011;36207;51.850;21.698;2024-01-27T01:02:18;22.20;;;12.10;;
50309;SDS011;36207;51.850;21.698;2024-01-27T01:04:44;22.10;;;11.30;;
50309;SDS011;36207;51.850;21.698;2024-01-27T01:07:10;18.00;;;9.10;;
50309;SDS011;36207;51.850;21.698;2024-01-27T01:09:36;15.90;;;8.10;;
50309;SDS011;36207;51.850;21.698;2024-01-27T01:12:02;17.00;;;8.00;;
50309;SDS011;36207;51.850;21.698;2024-01-27T01:14:28;17.00;;;7.10;;
50309;SDS011;36207;51.850;21.698;2024-01-27T01:16:54;11.70;;;6.00;;
50309;SDS011;36207;51.850;21.698;2024-01-27T01:19:20;11.80;;;5.70;;
50309;SDS011;36207;51.850;21.698;2024-01-27T01:21:46;11.30;;;4.50;;
50309;SDS011;36207;51.850;21.698;2024-01-27T01:24:12;11.30;;;4.20;;
50309;SDS011;36207;51.850;21.698;2024-01-27T01:26:38;8.90;;;3.70;;
50309;SDS011;36207;51.850;21.698;2024-01-27T01:29:03;8.50;;;3.30;;
50309;SDS011;36207;51.850;21.698;2024-01-27T01:31:29;11.60;;;3.50;;
50309;SDS011;36207;51.850;21.698;2024-01-27T01:33:55;9.70;;;3.00;;
50309;SDS011;36207;51.850;21.698;2024-01-27T01:36:21;14.30;;;3.50;;
50309;SDS011;36207;51.850;21.698;2024-01-27T01:38:47;11.90;;;2.80;;
50309;SDS011;36207;51.850;21.698;2024-01-27T01:41:13;6.50;;;2.80;;
50309;SDS011;36207;51.850;21.698;2024-01-27T01:43:38;9.10;;;2.40;;
50309;SDS011;36207;51.850;21.698;2024-01-27T01:46:04;11.40;;;3.40;;
50309;SDS011;36207;51.850;21.698;2024-01-27T01:48:30;8.20;;;2.60;;
50309;SDS011;36207;51.850;21.698;2024-01-27T01:50:57;12.50;;;2.50;;
50309;SDS011;36207;51.850;21.698;2024-01-27T01:53:24;12.30;;;3.20;;
50309;SDS011;36207;51.850;21.698;2024-01-27T01:55:51;11.30;;;3.10;;
50309;SDS011;36207;51.850;21.698;2024-01-27T01:58:18;9.00;;;2.40;;
50309;SDS011;36207;51.850;21.698;2024-01-27T02:00:44;8.40;;;2.70;;
50309;SDS011;36207;51.850;21.698;2024-01-27T02:03:11;8.90;;;2.90;;
50309;SDS011;36207;51.850;21.698;2024-01-27T02:05:38;10.10;;;2.90;;
50309;SDS011;36207;51.850;21.698;2024-01-27T02:08:05;9.90;;;2.50;;
50309;SDS011;36207;51.850;21.698;2024-01-27T02:10:31;8.90;;;2.90;;
50309;SDS011;36207;51.850;21.698;2024-01-27T02:13:03;9.70;;;2.70;;
50309;SDS011;36207;51.850;21.698;2024-01-27T02:15:31;9.70;;;2.90;;
50309;SDS011;36207;51.850;21.698;2024-01-27T02:17:57;11.30;;;3.30;;
50309;SDS011;36207;51.850;21.698;2024-01-27T02:20:23;8.90;;;2.80;;
50309;SDS011;36207;51.850;21.698;2024-01-27T02:22:48;8.20;;;2.70;;
50309;SDS011;36207;51.850;21.698;2024-01-27T02:25:14;8.60;;;2.70;;
50309;SDS011;36207;51.850;21.698;2024-01-27T02:27:40;11.00;;;2.70;;
50309;SDS011;36207;51.850;21.698;2024-01-27T02:30:07;9.00;;;2.80;;
50309;SDS011;36207;51.850;21.698;2024-01-27T02:32:33;9.00;;;2.70;;
50309;SDS011;36207;51.850;21.698;2024-01-27T02:34:59;10.70;;;2.80;;
50309;SDS011;36207;51.850;21.698;2024-01-27T02:37:25;8.90;;;2.70;;
50309;SDS011;36207;51.850;21.698;2024-01-27T02:39:51;9.80;;;2.50;;
50309;SDS011;36207;51.850;21.698;2024-01-27T02:42:16;13.60;;;3.10;;
50309;SDS011;36207;51.850;21.698;2024-01-27T02:44:43;11.60;;;2.70;;
50309;SDS011;36207;51.850;21.698;2024-01-27T02:47:09;9.40;;;2.80;;
50309;SDS011;36207;51.850;21.698;2024-01-27T02:49:35;11.60;;;2.50;;
50309;SDS011;36207;51.850;21.698;2024-01-27T02:52:01;9.00;;;2.40;;
50309;SDS011;36207;51.850;21.698;2024-01-27T02:54:26;14.10;;;3.40;;
50309;SDS011;36207;51.850;21.698;2024-01-27T02:56:52;10.00;;;2.80;;
50309;SDS011;36207;51.850;21.698;2024-01-27T02:59:18;9.40;;;2.70;;
50309;SDS011;36207;51.850;21.698;2024-01-27T03:01:44;10.20;;;2.60;;
50309;SDS011;36207;51.850;21.698;2024-01-27T03:04:10;10.80;;;2.70;;
50309;SDS011;36207;51.850;21.698;2024-01-27T03:06:36;10.60;;;2.80;;
50309;SDS011;36207;51.850;21.698;2024-01-27T03:09:02;10.80;;;2.60;;
50309;SDS011;36207;51.850;21.698;2024-01-27T03:11:29;15.60;;;3.30;;
50309;SDS011;36207;51.850;21.698;2024-01-27T03:13:54;10.30;;;3.00;;
50309;SDS011;36207;51.850;21.698;2024-01-27T03:16:20;15.40;;;3.20;;
50309;SDS011;36207;51.850;21.698;2024-01-27T03:18:46;15.20;;;3.10;;
50309;SDS011;36207;51.850;21.698;2024-01-27T03:21:12;9.50;;;2.90;;
50309;SDS011;36207;51.850;21.698;2024-01-27T03:23:38;15.10;;;3.20;;
50309;SDS011;36207;51.850;21.698;2024-01-27T03:26:04;9.90;;;3.00;;
50309;SDS011;36207;51.850;21.698;2024-01-27T03:28:30;15.60;;;3.30;;
50309;SDS011;36207;51.850;21.698;2024-01-27T03:30:56;13.20;;;3.40;;
50309;SDS011;36207;51.850;21.698;2024-01-27T03:33:22;10.00;;;3.10;;
50309;SDS011;36207;51.850;21.698;2024-01-27T03:35:48;14.40;;;3.10;;
50309;SDS011;36207;51.850;21.698;2024-01-27T03:38:14;11.90;;;3.00;;
50309;SDS011;36207;51.850;21.698;2024-01-27T03:40:40;15.60;;;3.10;;
50309;SDS011;36207;51.850;21.698;2024-01-27T03:43:05;13.20;;;3.30;;
50309;SDS011;36207;51.850;21.698;2024-01-27T03:45:31;14.70;;;3.20;;
50309;SDS011;36207;51.850;21.698;2024-01-27T03:47:57;17.50;;;3.50;;
50309;SDS011;36207;51.850;21.698;2024-01-27T03:50:23;13.20;;;3.40;;
50309;SDS011;36207;51.850;21.698;2024-01-27T03:52:49;16.70;;;3.90;;
50309;SDS011;36207;51.850;21.698;2024-01-27T03:55:15;15.20;;;3.50;;
50309;SDS011;36207;51.850;21.698;2024-01-27T03:57:40;17.80;;;3.60;;
50309;SDS011;36207;51.850;21.698;2024-01-27T04:00:06;19.90;;;3.50;;
50309;SDS011;36207;51.850;21.698;2024-01-27T04:02:33;16.80;;;3.40;;
50309;SDS011;36207;51.850;21.698;2024-01-27T04:04:59;16.90;;;3.70;;
50309;SDS011;36207;51.850;21.698;2024-01-27T04:07:25;16.10;;;3.80;;
50309;SDS011;36207;51.850;21.698;2024-01-27T04:09:50;15.00;;;4.20;;
50309;SDS011;36207;51.850;21.698;2024-01-27T04:12:16;14.90;;;3.40;;
50309;SDS011;36207;51.850;21.698;2024-01-27T04:14:42;12.50;;;3.20;;
50309;SDS011;36207;51.850;21.698;2024-01-27T04:17:08;15.10;;;3.40;;
50309;SDS011;36207;51.850;21.698;2024-01-27T04:19:34;18.60;;;3.60;;
50309;SDS011;36207;51.850;21.698;2024-01-27T04:22:00;14.90;;;3.40;;
50309;SDS011;36207;51.850;21.698;2024-01-27T04:24:25;14.10;;;3.60;;
50309;SDS011;36207;51.850;21.698;2024-01-27T04:26:51;15.30;;;3.50;;
50309;SDS011;36207;51.850;21.698;2024-01-27T04:29:17;15.30;;;4.20;;
50309;SDS011;36207;51.850;21.698;2024-01-27T04:31:43;14.00;;;3.50;;
50309;SDS011;36207;51.850;21.698;2024-01-27T04:34:10;10.60;;;3.20;;
50309;SDS011;36207;51.850;21.698;2024-01-27T04:36:36;16.30;;;4.20;;
50309;SDS011;36207;51.850;21.698;2024-01-27T04:39:02;14.00;;;3.90;;
50309;SDS011;36207;51.850;21.698;2024-01-27T04:41:28;16.10;;;4.20;;
50309;SDS011;36207;51.850;21.698;2024-01-27T04:43:54;15.40;;;4.00;;
50309;SDS011;36207;51.850;21.698;2024-01-27T04:46:22;15.90;;;4.30;;
50309;SDS011;36207;51.850;21.698;2024-01-27T04:48:48;12.30;;;3.60;;
50309;SDS011;36207;51.850;21.698;2024-01-27T04:51:14;18.10;;;5.00;;
50309;SDS011;36207;51.850;21.698;2024-01-27T04:53:40;15.00;;;4.10;;
50309;SDS011;36207;51.850;21.698;2024-01-27T04:56:06;15.70;;;3.90;;
50309;SDS011;36207;51.850;21.698;2024-01-27T04:58:35;16.80;;;4.00;;
50309;SDS011;36207;51.850;21.698;2024-01-27T05:01:02;16.60;;;4.30;;
50309;SDS011;36207;51.850;21.698;2024-01-27T05:03:28;14.90;;;4.30;;
50309;SDS011;36207;51.850;21.698;2024-01-27T05:05:54;15.50;;;4.00;;
50309;SDS011;36207;51.850;21.698;2024-01-27T05:08:20;15.10;;;4.00;;
50309;SDS011;36207;51.850;21.698;2024-01-27T05:10:46;17.70;;;4.00;;
50309;SDS011;36207;51.850;21.698;2024-01-27T05:13:11;14.60;;;4.00;;
50309;SDS011;36207;51.850;21.698;2024-01-27T05:15:37;19.30;;;4.00;;
50309;SDS011;36207;51.850;21.698;2024-01-27T05:18:04;17.20;;;4.00;;
50309;SDS011;36207;51.850;21.698;2024-01-27T05:20:30;14.60;;;3.90;;
50309;SDS011;36207;51.850;21.698;2024-01-27T05:22:56;16.70;;;4.50;;
50309;SDS011;36207;51.850;21.698;2024-01-27T05:25:22;12.50;;;3.70;;
50309;SDS011;36207;51.850;21.698;2024-01-27T05:27:48;16.50;;;4.60;;
50309;SDS011;36207;51.850;21.698;2024-01-27T05:30:15;13.60;;;4.20;;
50309;SDS011;36207;51.850;21.698;2024-01-27T05:32:41;15.00;;;4.50;;
50309;SDS011;36207;51.850;21.698;2024-01-27T05:35:07;13.30;;;4.50;;
50309;SDS011;36207;51.850;21.698;2024-01-27T05:37:35;17.00;;;4.40;;
50309;SDS011;36207;51.850;21.698;2024-01-27T05:40:01;18.80;;;4.60;;
50309;SDS011;36207;51.850;21.698;2024-01-27T05:42:28;14.30;;;3.70;;
50309;SDS011;36207;51.850;21.698;2024-01-27T05:44:54;15.00;;;4.20;;
50309;SDS011;36207;51.850;21.698;2024-01-27T05:47:20;16.80;;;4.10;;
50309;SDS011;36207;51.850;21.698;2024-01-27T05:49:46;14.70;;;4.30;;
50309;SDS011;36207;51.850;21.698;2024-01-27T05:52:12;14.00;;;4.60;;
50309;SDS011;36207;51.850;21.698;2024-01-27T05:54:41;15.20;;;4.20;;
50309;SDS011;36207;51.850;21.698;2024-01-27T05:57:07;16.70;;;4.20;;
50309;SDS011;36207;51.850;21.698;2024-01-27T05:59:33;17.40;;;4.60;;
50309;SDS011;36207;51.850;21.698;2024-01-27T06:01:59;15.40;;;4.50;;
50309;SDS011;36207;51.850;21.698;2024-01-27T06:04:25;17.20;;;4.60;;
50309;SDS011;36207;51.850;21.698;2024-01-27T06:06:51;16.90;;;4.70;;
50309;SDS011;36207;51.850;21.698;2024-01-27T06:09:18;15.80;;;4.00;;
50309;SDS011;36207;51.850;21.698;2024-01-27T06:11:44;16.80;;;4.10;;
50309;SDS011;36207;51.850;21.698;2024-01-27T06:14:09;12.00;;;3.90;;
50309;SDS011;36207;51.850;21.698;2024-01-27T06:16:35;15.50;;;3.80;;
50309;SDS011;36207;51.850;21.698;2024-01-27T06:19:01;20.50;;;4.50;;
50309;SDS011;36207;51.850;21.698;2024-01-27T06:21:27;16.90;;;4.50;;
50309;SDS011;36207;51.850;21.698;2024-01-27T06:23:53;13.70;;;4.00;;
50309;SDS011;36207;51.850;21.698;2024-01-27T06:26:19;11.40;;;4.00;;
50309;SDS011;36207;51.850;21.698;2024-01-27T06:28:47;13.90;;;3.50;;
50309;SDS011;36207;51.850;21.698;2024-01-27T06:31:13;19.40;;;4.30;;
50309;SDS011;36207;51.850;21.698;2024-01-27T06:33:40;16.20;;;4.50;;
50309;SDS011;36207;51.850;21.698;2024-01-27T06:36:06;12.60;;;4.10;;
50309;SDS011;36207;51.850;21.698;2024-01-27T06:38:36;15.00;;;4.10;;
50309;SDS011;36207;51.850;21.698;2024-01-27T06:41:03;15.20;;;4.20;;
50309;SDS011;36207;51.850;21.698;2024-01-27T06:43:29;21.50;;;4.30;;
50309;SDS011;36207;51.850;21.698;2024-01-27T06:45:55;17.80;;;4.50;;
50309;SDS011;36207;51.850;21.698;2024-01-27T06:48:22;14.00;;;4.30;;
50309;SDS011;36207;51.850;21.698;2024-01-27T06:50:51;16.10;;;3.80;;
50309;SDS011;36207;51.850;21.698;2024-01-27T06:53:20;16.50;;;3.90;;
50309;SDS011;36207;51.850;21.698;2024-01-27T06:55:46;13.30;;;4.10;;
50309;SDS011;36207;51.850;21.698;2024-01-27T06:58:12;17.80;;;4.20;;
50309;SDS011;36207;51.850;21.698;2024-01-27T07:00:38;20.50;;;4.60;;
50309;SDS011;36207;51.850;21.698;2024-01-27T07:03:05;16.00;;;4.40;;
50309;SDS011;36207;51.850;21.698;2024-01-27T07:05:31;19.20;;;4.00;;
50309;SDS011;36207;51.850;21.698;2024-01-27T07:07:59;16.00;;;4.60;;
50309;SDS011;36207;51.850;21.698;2024-01-27T07:10:25;21.90;;;4.40;;
50309;SDS011;36207;51.850;21.698;2024-01-27T07:12:51;15.40;;;4.10;;
50309;SDS011;36207;51.850;21.698;2024-01-27T07:15:17;15.30;;;3.80;;
50309;SDS011;36207;51.850;21.698;2024-01-27T07:17:46;13.30;;;4.10;;
50309;SDS011;36207;51.850;21.698;2024-01-27T07:20:12;18.30;;;4.70;;
50309;SDS011;36207;51.850;21.698;2024-01-27T07:22:38;13.80;;;4.40;;
50309;SDS011;36207;51.850;21.698;2024-01-27T07:25:04;15.20;;;4.20;;
50309;SDS011;36207;51.850;21.698;2024-01-27T07:27:30;20.70;;;4.30;;
50309;SDS011;36207;51.850;21.698;2024-01-27T07:29:56;16.40;;;4.60;;
50309;SDS011;36207;51.850;21.698;2024-01-27T07:32:22;15.10;;;4.30;;
50309;SDS011;36207;51.850;21.698;2024-01-27T07:34:48;17.90;;;4.60;;
50309;SDS011;36207;51.850;21.698;2024-01-27T07:37:14;18.20;;;4.90;;
50309;SDS011;36207;51.850;21.698;2024-01-27T07:39:40;13.40;;;4.80;;
50309;SDS011;36207;51.850;21.698;2024-01-27T07:42:06;19.10;;;4.90;;
50309;SDS011;36207;51.850;21.698;2024-01-27T07:44:32;16.30;;;4.50;;
50309;SDS011;36207;51.850;21.698;2024-01-27T07:46:58;14.50;;;4.60;;
50309;SDS011;36207;51.850;21.698;2024-01-27T07:49:24;14.70;;;4.70;;
50309;SDS011;36207;51.850;21.698;2024-01-27T07:51:50;15.70;;;5.00;;
50309;SDS011;36207;51.850;21.698;2024-01-27T07:54:15;18.40;;;4.90;;
50309;SDS011;36207;51.850;21.698;2024-01-27T07:56:41;16.20;;;4.70;;
50309;SDS011;36207;51.850;21.698;2024-01-27T07:59:07;18.20;;;5.10;;
50309;SDS011;36207;51.850;21.698;2024-01-27T08:01:39;16.80;;;5.40;;
50309;SDS011;36207;51.850;21.698;2024-01-27T08:04:06;20.20;;;5.30;;
50309;SDS011;36207;51.850;21.698;2024-01-27T08:06:32;19.80;;;4.80;;
50309;SDS011;36207;51.850;21.698;2024-01-27T08:08:58;16.10;;;5.20;;
50309;SDS011;36207;51.850;21.698;2024-01-27T08:11:24;15.80;;;4.50;;
50309;SDS011;36207;51.850;21.698;2024-01-27T08:13:50;16.60;;;5.20;;
50309;SDS011;36207;51.850;21.698;2024-01-27T08:16:17;13.90;;;4.90;;
50309;SDS011;36207;51.850;21.698;2024-01-27T08:18:43;17.90;;;5.10;;
50309;SDS011;36207;51.850;21.698;2024-01-27T08:21:10;17.80;;;5.10;;
50309;SDS011;36207;51.850;21.698;2024-01-27T08:23:37;15.70;;;5.00;;
50309;SDS011;36207;51.850;21.698;2024-01-27T08:26:03;16.10;;;5.30;;
50309;SDS011;36207;51.850;21.698;2024-01-27T08:28:29;14.30;;;4.90;;
50309;SDS011;36207;51.850;21.698;2024-01-27T08:30:55;13.50;;;5.10;;
50309;SDS011;36207;51.850;21.698;2024-01-27T08:33:21;16.50;;;5.30;;
50309;SDS011;36207;51.850;21.698;2024-01-27T08:35:47;15.40;;;5.10;;
50309;SDS011;36207;51.850;21.698;2024-01-27T08:38:14;17.70;;;5.40;;
50309;SDS011;36207;51.850;21.698;2024-01-27T08:40:40;19.60;;;4.90;;
50309;SDS011;36207;51.850;21.698;2024-01-27T08:43:06;15.40;;;5.00;;
50309;SDS011;36207;51.850;21.698;2024-01-27T08:45:32;17.10;;;5.10;;
50309;SDS011;36207;51.850;21.698;2024-01-27T08:47:58;15.00;;;5.10;;
50309;SDS011;36207;51.850;21.698;2024-01-27T08:50:24;13.70;;;4.70;;
50309;SDS011;36207;51.850;21.698;2024-01-27T08:52:50;14.90;;;4.60;;
50309;SDS011;36207;51.850;21.698;2024-01-27T08:55:17;13.20;;;4.70;;
50309;SDS011;36207;51.850;21.698;2024-01-27T08:57:45;16.80;;;5.40;;
50309;SDS011;36207;51.850;21.698;2024-01-27T09:00:12;16.70;;;5.60;;
50309;SDS011;36207;51.850;21.698;2024-01-27T09:02:38;13.10;;;4.80;;
50309;SDS011;36207;51.850;21.698;2024-01-27T09:05:04;14.30;;;5.30;;
50309;SDS011;36207;51.850;21.698;2024-01-27T09:07:31;16.50;;;5.10;;
50309;SDS011;36207;51.850;21.698;2024-01-27T09:09:57;17.90;;;5.40;;
50309;SDS011;36207;51.850;21.698;2024-01-27T09:12:23;18.10;;;5.70;;
50309;SDS011;36207;51.850;21.698;2024-01-27T09:14:48;15.80;;;5.40;;
50309;SDS011;36207;51.850;21.698;2024-01-27T09:17:14;15.10;;;5.30;;
50309;SDS011;36207;51.850;21.698;2024-01-27T09:19:40;15.80;;;5.30;;
50309;SDS011;36207;51.850;21.698;2024-01-27T09:22:06;13.60;;;5.30;;
50309;SDS011;36207;51.850;21.698;2024-01-27T09:24:32;14.10;;;5.10;;
50309;SDS011;36207;51.850;21.698;2024-01-27T09:26:58;13.60;;;5.20;;
50309;SDS011;36207;51.850;21.698;2024-01-27T09:29:23;14.20;;;5.10;;
50309;SDS011;36207;51.850;21.698;2024-01-27T09:31:49;15.40;;;5.40;;
50309;SDS011;36207;51.850;21.698;2024-01-27T09:34:15;12.00;;;4.90;;
50309;SDS011;36207;51.850;21.698;2024-01-27T09:36:41;11.40;;;4.90;;
50309;SDS011;36207;51.850;21.698;2024-01-27T09:39:07;14.30;;;4.80;;
50309;SDS011;36207;51.850;21.698;2024-01-27T09:41:34;13.20;;;4.90;;
50309;SDS011;36207;51.850;21.698;2024-01-27T09:44:03;13.90;;;5.00;;
50309;SDS011;36207;51.850;21.698;2024-01-27T09:46:30;13.40;;;4.70;;
50309;SDS011;36207;51.850;21.698;2024-01-27T09:48:57;12.50;;;5.30;;
50309;SDS011;36207;51.850;21.698;2024-01-27T09:51:26;12.70;;;5.00;;
50309;SDS011;36207;51.850;21.698;2024-01-27T09:53:53;12.10;;;5.20;;
50309;SDS011;36207;51.850;21.698;2024-01-27T09:56:19;13.00;;;4.80;;
50309;SDS011;36207;51.850;21.698;2024-01-27T09:58:46;9.40;;;5.00;;
50309;SDS011;36207;51.850;21.698;2024-01-27T10:01:18;10.80;;;4.70;;
50309;SDS011;36207;51.850;21.698;2024-01-27T10:03:46;12.10;;;4.80;;
50309;SDS011;36207;51.850;21.698;2024-01-27T10:06:13;11.90;;;5.30;;
50309;SDS011;36207;51.850;21.698;2024-01-27T10:08:42;12.60;;;5.50;;
50309;SDS011;36207;51.850;21.698;2024-01-27T10:11:16;11.60;;;5.40;;
50309;SDS011;36207;51.850;21.698;2024-01-27T10:13:44;12.80;;;5.30;;
50309;SDS011;36207;51.850;21.698;2024-01-27T10:16:10;15.00;;;5.40;;
50309;SDS011;36207;51.850;21.698;2024-01-27T10:18:37;12.70;;;5.50;;
50309;SDS011;36207;51.850;21.698;2024-01-27T10:21:16;11.30;;;5.20;;
50309;SDS011;36207;51.850;21.698;2024-01-27T10:23:43;11.10;;;5.50;;
50309;SDS011;36207;51.850;21.698;2024-01-27T10:26:10;12.50;;;5.20;;
50309;SDS011;36207;51.850;21.698;2024-01-27T10:28:36;13.80;;;5.30;;
50309;SDS011;36207;51.850;21.698;2024-01-27T10:31:12;14.80;;;5.20;;
50309;SDS011;36207;51.850;21.698;2024-01-27T10:33:38;13.60;;;5.30;;
50309;SDS011;36207;51.850;21.698;2024-01-27T10:36:05;12.70;;;5.00;;
50309;SDS011;36207;51.850;21.698;2024-01-27T10:38:37;16.10;;;5.50;;
50309;SDS011;36207;51.850;21.698;2024-01-27T10:41:06;12.00;;;4.90;;
50309;SDS011;36207;51.850;21.698;2024-01-27T10:43:36;15.10;;;5.60;;
50309;SDS011;36207;51.850;21.698;2024-01-27T10:46:03;13.00;;;5.50;;
50309;SDS011;36207;51.850;21.698;2024-01-27T10:48:32;12.50;;;5.40;;
50309;SDS011;36207;51.850;21.698;2024-01-27T10:51:00;10.60;;;5.20;;
50309;SDS011;36207;51.850;21.698;2024-01-27T10:53:33;12.40;;;5.30;;
50309;SDS011;36207;51.850;21.698;2024-01-27T10:56:01;13.10;;;5.50;;
50309;SDS011;36207;51.850;21.698;2024-01-27T10:58:29;14.00;;;5.90;;
50309;SDS011;36207;51.850;21.698;2024-01-27T11:00:57;13.10;;;6.40;;
50309;SDS011;36207;51.850;21.698;2024-01-27T11:03:25;14.50;;;7.00;;
50309;SDS011;36207;51.850;21.698;2024-01-27T11:05:53;10.50;;;5.90;;
50309;SDS011;36207;51.850;21.698;2024-01-27T11:08:20;12.50;;;5.50;;
50309;SDS011;36207;51.850;21.698;2024-01-27T11:10:53;13.00;;;6.00;;
50309;SDS011;36207;51.850;21.698;2024-01-27T11:13:19;11.80;;;5.80;;
50309;SDS011;36207;51.850;21.698;2024-01-27T11:15:52;11.80;;;5.80;;
50309;SDS011;36207;51.850;21.698;2024-01-27T11:18:19;11.30;;;5.80;;
50309;SDS011;36207;51.850;21.698;2024-01-27T11:20:45;13.80;;;5.80;;
50309;SDS011;36207;51.850;21.698;2024-01-27T11:23:14;10.00;;;5.30;;
50309;SDS011;36207;51.850;21.698;2024-01-27T11:25:41;10.90;;;5.50;;
50309;SDS011;36207;51.850;21.698;2024-01-27T11:28:14;9.00;;;5.70;;
50309;SDS011;36207;51.850;21.698;2024-01-27T11:33:14;11.00;;;5.10;;
50309;SDS011;36207;51.850;21.698;2024-01-27T11:35:40;11.60;;;5.60;;
50309;SDS011;36207;51.850;21.698;2024-01-27T11:38:06;12.20;;;5.40;;
50309;SDS011;36207;51.850;21.698;2024-01-27T11:40:32;10.20;;;5.60;;
50309;SDS011;36207;51.850;21.698;2024-01-27T11:42:59;9.70;;;5.70;;
50309;SDS011;36207;51.850;21.698;2024-01-27T11:45:27;10.10;;;5.60;;
50309;SDS011;36207;51.850;21.698;2024-01-27T11:47:55;10.50;;;5.60;;
50309;SDS011;36207;51.850;21.698;2024-01-27T11:50:22;10.90;;;6.20;;
50309;SDS011;36207;51.850;21.698;2024-01-27T11:52:48;10.70;;;6.00;;
50309;SDS011;36207;51.850;21.698;2024-01-27T11:55:15;9.90;;;6.30;;
50309;SDS011;36207;51.850;21.698;2024-01-27T11:57:42;10.70;;;6.10;;
50309;SDS011;36207;51.850;21.698;2024-01-27T12:00:08;9.30;;;5.90;;
50309;SDS011;36207;51.850;21.698;2024-01-27T12:02:35;12.40;;;6.30;;
50309;SDS011;36207;51.850;21.698;2024-01-27T12:05:01;11.30;;;6.60;;
50309;SDS011;36207;51.850;21.698;2024-01-27T12:07:27;11.30;;;6.00;;
50309;SDS011;36207;51.850;21.698;2024-01-27T12:09:53;11.30;;;6.30;;
50309;SDS011;36207;51.850;21.698;2024-01-27T12:12:19;10.90;;;6.20;;
50309;SDS011;36207;51.850;21.698;2024-01-27T12:14:46;11.40;;;6.40;;
50309;SDS011;36207;51.850;21.698;2024-01-27T12:17:14;11.80;;;6.50;;
50309;SDS011;36207;51.850;21.698;2024-01-27T12:19:47;11.70;;;6.90;;
50309;SDS011;36207;51.850;21.698;2024-01-27T12:24:53;12.60;;;6.90;;
50309;SDS011;36207;51.850;21.698;2024-01-27T12:27:21;13.80;;;7.00;;
50309;SDS011;36207;51.850;21.698;2024-01-27T12:29:48;12.50;;;7.10;;
50309;SDS011;36207;51.850;21.698;2024-01-27T12:32:15;11.60;;;6.70;;
50309;SDS011;36207;51.850;21.698;2024-01-27T12:34:43;14.80;;;7.50;;
50309;SDS011;36207;51.850;21.698;2024-01-27T12:37:11;12.80;;;7.30;;
50309;SDS011;36207;51.850;21.698;2024-01-27T12:39:42;14.00;;;6.90;;
50309;SDS011;36207;51.850;21.698;2024-01-27T12:42:10;12.70;;;6.70;;
50309;SDS011;36207;51.850;21.698;2024-01-27T12:44:37;12.50;;;6.90;;
50309;SDS011;36207;51.850;21.698;2024-01-27T12:47:03;14.20;;;8.40;;
50309;SDS011;36207;51.850;21.698;2024-01-27T12:49:30;11.60;;;7.50;;
50309;SDS011;36207;51.850;21.698;2024-01-27T12:51:56;11.50;;;6.30;;
50309;SDS011;36207;51.850;21.698;2024-01-27T12:54:22;10.20;;;5.80;;
50309;SDS011;36207;51.850;21.698;2024-01-27T12:56:48;10.40;;;6.10;;
50309;SDS011;36207;51.850;21.698;2024-01-27T12:59:14;9.20;;;5.40;;
50309;SDS011;36207;51.850;21.698;2024-01-27T13:01:41;12.00;;;6.70;;
50309;SDS011;36207;51.850;21.698;2024-01-27T13:04:06;18.90;;;9.10;;
50309;SDS011;36207;51.850;21.698;2024-01-27T13:06:32;18.60;;;8.60;;
50309;SDS011;36207;51.850;21.698;2024-01-27T13:08:58;15.60;;;8.40;;
50309;SDS011;36207;51.850;21.698;2024-01-27T13:11:25;19.60;;;10.20;;
50309;SDS011;36207;51.850;21.698;2024-01-27T13:13:51;17.40;;;10.30;;
50309;SDS011;36207;51.850;21.698;2024-01-27T13:16:17;16.20;;;9.40;;
50309;SDS011;36207;51.850;21.698;2024-01-27T13:18:43;15.00;;;8.80;;
50309;SDS011;36207;51.850;21.698;2024-01-27T13:21:11;14.20;;;9.00;;
50309;SDS011;36207;51.850;21.698;2024-01-27T13:23:37;13.00;;;8.40;;
50309;SDS011;36207;51.850;21.698;2024-01-27T13:26:03;13.60;;;8.70;;
50309;SDS011;36207;51.850;21.698;2024-01-27T13:28:30;15.40;;;9.30;;
50309;SDS011;36207;51.850;21.698;2024-01-27T13:30:55;15.40;;;9.70;;
50309;SDS011;36207;51.850;21.698;2024-01-27T13:33:21;16.90;;;9.20;;
50309;SDS011;36207;51.850;21.698;2024-01-27T13:35:47;17.20;;;9.50;;
50309;SDS011;36207;51.850;21.698;2024-01-27T13:38:13;17.70;;;9.80;;
50309;SDS011;36207;51.850;21.698;2024-01-27T13:40:39;19.80;;;10.70;;
50309;SDS011;36207;51.850;21.698;2024-01-27T13:43:10;18.20;;;10.00;;
50309;SDS011;36207;51.850;21.698;2024-01-27T13:45:36;18.50;;;10.60;;
50309;SDS011;36207;51.850;21.698;2024-01-27T13:48:02;18.50;;;11.70;;
50309;SDS011;36207;51.850;21.698;2024-01-27T13:50:28;18.70;;;11.70;;
50309;SDS011;36207;51.850;21.698;2024-01-27T13:52:57;18.90;;;11.00;;
50309;SDS011;36207;51.850;21.698;2024-01-27T13:55:24;17.90;;;11.30;;
50309;SDS011;36207;51.850;21.698;2024-01-27T13:57:50;19.40;;;11.80;;
50309;SDS011;36207;51.850;21.698;2024-01-27T14:00:16;18.90;;;11.50;;
50309;SDS011;36207;51.850;21.698;2024-01-27T14:02:42;17.40;;;11.50;;
50309;SDS011;36207;51.850;21.698;2024-01-27T14:05:09;20.80;;;11.00;;
50309;SDS011;36207;51.850;21.698;2024-01-27T14:07:35;19.20;;;11.60;;
50309;SDS011;36207;51.850;21.698;2024-01-27T14:10:01;18.00;;;10.90;;
50309;SDS011;36207;51.850;21.698;2024-01-27T14:12:28;18.20;;;12.10;;
50309;SDS011;36207;51.850;21.698;2024-01-27T14:15:01;20.70;;;12.50;;
50309;SDS011;36207;51.850;21.698;2024-01-27T14:17:28;20.00;;;12.30;;
50309;SDS011;36207;51.850;21.698;2024-01-27T14:19:55;19.40;;;12.10;;
50309;SDS011;36207;51.850;21.698;2024-01-27T14:22:21;20.10;;;12.40;;